sensor_id;sensor_type;location;lat;lon;timestamp;P1;durP1;ratioP1;P2;durP2;ratioP2
82779;SDS011;72511;45.120;20.720;2023-12-28T00:01:48;44.03;;;24.88;;
82779;SDS011;72511;45.120;20.720;2023-12-28T00:11:51;55.50;;;30.65;;
82779;SDS011;72511;45.120;20.720;2023-12-28T00:21:53;52.92;;;26.50;;
82779;SDS011;72511;45.120;20.720;2023-12-28T00:31:54;47.30;;;25.77;;
82779;SDS011;72511;45.120;20.720;2023-12-28T00:41:57;37.88;;;20.15;;
82779;SDS011;72511;45.120;20.720;2023-12-28T00:52:23;39.90;;;24.00;;
82779;SDS011;72511;45.120;20.720;2023-12-28T01:02:27;31.17;;;18.92;;
82779;SDS011;72511;45.120;20.720;2023-12-28T01:12:30;29.77;;;15.98;;
82779;SDS011;72511;45.120;20.720;2023-12-28T01:22:35;32.75;;;18.08;;
82779;SDS011;72511;45.120;20.720;2023-12-28T01:32:38;25.77;;;15.48;;
82779;SDS011;72511;45.120;20.720;2023-12-28T01:42:41;25.92;;;15.43;;
82779;SDS011;72511;45.120;20.720;2023-12-28T01:52:47;26.23;;;12.70;;
82779;SDS011;72511;45.120;20.720;2023-12-28T02:02:51;22.38;;;13.23;;
82779;SDS011;72511;45.120;20.720;2023-12-28T02:12:53;23.23;;;11.43;;
82779;SDS011;72511;45.120;20.720;2023-12-28T02:22:57;16.40;;;8.25;;
82779;SDS011;72511;45.120;20.720;2023-12-28T02:43:19;18.35;;;11.52;;
82779;SDS011;72511;45.120;20.720;2023-12-28T02:53:21;22.02;;;13.05;;
82779;SDS011;72511;45.120;20.720;2023-12-28T03:03:23;22.35;;;13.25;;
82779;SDS011;72511;45.120;20.720;2023-12-28T03:13:25;21.17;;;10.52;;
82779;SDS011;72511;45.120;20.720;2023-12-28T03:23:26;17.35;;;9.95;;
82779;SDS011;72511;45.120;20.720;2023-12-28T03:53:31;16.60;;;9.50;;
82779;SDS011;72511;45.120;20.720;2023-12-28T04:03:32;20.35;;;11.68;;
82779;SDS011;72511;45.120;20.720;2023-12-28T04:13:34;18.00;;;9.05;;
82779;SDS011;72511;45.120;20.720;2023-12-28T04:23:39;17.27;;;11.60;;
82779;SDS011;72511;45.120;20.720;2023-12-28T04:33:41;16.23;;;9.68;;
82779;SDS011;72511;45.120;20.720;2023-12-28T04:43:43;17.13;;;10.48;;
82779;SDS011;72511;45.120;20.720;2023-12-28T04:53:45;22.15;;;13.15;;
82779;SDS011;72511;45.120;20.720;2023-12-28T05:03:46;17.80;;;10.20;;
82779;SDS011;72511;45.120;20.720;2023-12-28T05:13:48;45.28;;;19.10;;
82779;SDS011;72511;45.120;20.720;2023-12-28T05:23:49;24.85;;;14.65;;
82779;SDS011;72511;45.120;20.720;2023-12-28T05:43:52;25.10;;;14.48;;
82779;SDS011;72511;45.120;20.720;2023-12-28T06:03:54;27.45;;;15.63;;
82779;SDS011;72511;45.120;20.720;2023-12-28T06:13:56;26.80;;;14.45;;
82779;SDS011;72511;45.120;20.720;2023-12-28T06:23:58;256.35;;;115.78;;
82779;SDS011;72511;45.120;20.720;2023-12-28T06:33:59;30.85;;;19.30;;
82779;SDS011;72511;45.120;20.720;2023-12-28T06:44:01;25.10;;;17.40;;
82779;SDS011;72511;45.120;20.720;2023-12-28T06:54:02;28.40;;;17.35;;
82779;SDS011;72511;45.120;20.720;2023-12-28T07:04:04;207.75;;;82.82;;
82779;SDS011;72511;45.120;20.720;2023-12-28T07:14:05;92.90;;;40.20;;
82779;SDS011;72511;45.120;20.720;2023-12-28T07:24:07;42.50;;;22.80;;
82779;SDS011;72511;45.120;20.720;2023-12-28T07:34:09;55.80;;;23.25;;
82779;SDS011;72511;45.120;20.720;2023-12-28T07:44:10;42.03;;;19.70;;
82779;SDS011;72511;45.120;20.720;2023-12-28T07:54:12;29.88;;;16.15;;
82779;SDS011;72511;45.120;20.720;2023-12-28T08:04:14;28.48;;;14.75;;
82779;SDS011;72511;45.120;20.720;2023-12-28T08:14:15;28.00;;;16.15;;
82779;SDS011;72511;45.120;20.720;2023-12-28T08:24:16;25.33;;;14.00;;
82779;SDS011;72511;45.120;20.720;2023-12-28T08:34:18;40.30;;;19.10;;
82779;SDS011;72511;45.120;20.720;2023-12-28T08:44:20;38.58;;;18.10;;
82779;SDS011;72511;45.120;20.720;2023-12-28T08:54:22;64.43;;;32.20;;
82779;SDS011;72511;45.120;20.720;2023-12-28T09:04:23;96.38;;;47.17;;
82779;SDS011;72511;45.120;20.720;2023-12-28T09:14:25;136.20;;;62.85;;
82779;SDS011;72511;45.120;20.720;2023-12-28T09:24:26;84.85;;;38.33;;
82779;SDS011;72511;45.120;20.720;2023-12-28T09:34:27;56.20;;;26.52;;
82779;SDS011;72511;45.120;20.720;2023-12-28T09:44:29;57.15;;;28.83;;
82779;SDS011;72511;45.120;20.720;2023-12-28T09:54:32;25.88;;;15.82;;
82779;SDS011;72511;45.120;20.720;2023-12-28T10:04:33;29.50;;;16.70;;
82779;SDS011;72511;45.120;20.720;2023-12-28T10:14:35;24.05;;;13.25;;
82779;SDS011;72511;45.120;20.720;2023-12-28T10:24:40;20.88;;;13.68;;
82779;SDS011;72511;45.120;20.720;2023-12-28T10:34:45;23.10;;;12.27;;
82779;SDS011;72511;45.120;20.720;2023-12-28T10:44:47;18.83;;;10.20;;
82779;SDS011;72511;45.120;20.720;2023-12-28T11:05:49;18.77;;;11.80;;
82779;SDS011;72511;45.120;20.720;2023-12-28T11:15:52;33.83;;;17.40;;
82779;SDS011;72511;45.120;20.720;2023-12-28T11:25:56;170.02;;;64.53;;
82779;SDS011;72511;45.120;20.720;2023-12-28T11:35:57;213.77;;;81.93;;
82779;SDS011;72511;45.120;20.720;2023-12-28T11:45:59;170.27;;;75.03;;
82779;SDS011;72511;45.120;20.720;2023-12-28T11:56:01;65.72;;;35.67;;
82779;SDS011;72511;45.120;20.720;2023-12-28T12:06:03;46.30;;;25.52;;
82779;SDS011;72511;45.120;20.720;2023-12-28T12:16:05;36.92;;;21.73;;
82779;SDS011;72511;45.120;20.720;2023-12-28T12:26:07;26.48;;;16.05;;
82779;SDS011;72511;45.120;20.720;2023-12-28T12:36:08;29.48;;;16.80;;
82779;SDS011;72511;45.120;20.720;2023-12-28T12:46:10;18.92;;;12.90;;
82779;SDS011;72511;45.120;20.720;2023-12-28T12:56:12;20.48;;;11.90;;
82779;SDS011;72511;45.120;20.720;2023-12-28T13:06:14;35.33;;;15.55;;
82779;SDS011;72511;45.120;20.720;2023-12-28T13:16:15;30.23;;;16.08;;
82779;SDS011;72511;45.120;20.720;2023-12-28T13:26:18;41.92;;;21.38;;
82779;SDS011;72511;45.120;20.720;2023-12-28T13:36:19;41.55;;;22.38;;
82779;SDS011;72511;45.120;20.720;2023-12-28T13:46:20;41.30;;;20.55;;
82779;SDS011;72511;45.120;20.720;2023-12-28T13:56:24;30.98;;;17.63;;
82779;SDS011;72511;45.120;20.720;2023-12-28T14:06:26;32.47;;;17.73;;
82779;SDS011;72511;45.120;20.720;2023-12-28T14:16:27;32.00;;;17.02;;
82779;SDS011;72511;45.120;20.720;2023-12-28T14:26:29;69.47;;;32.50;;
82779;SDS011;72511;45.120;20.720;2023-12-28T14:36:36;118.45;;;56.50;;
82779;SDS011;72511;45.120;20.720;2023-12-28T14:46:41;159.88;;;67.05;;
82779;SDS011;72511;45.120;20.720;2023-12-28T14:56:42;164.07;;;65.30;;
82779;SDS011;72511;45.120;20.720;2023-12-28T15:06:44;86.35;;;41.83;;
82779;SDS011;72511;45.120;20.720;2023-12-28T15:16:45;92.00;;;45.88;;
82779;SDS011;72511;45.120;20.720;2023-12-28T15:26:47;125.95;;;61.85;;
82779;SDS011;72511;45.120;20.720;2023-12-28T15:36:49;155.60;;;67.80;;
82779;SDS011;72511;45.120;20.720;2023-12-28T15:46:51;170.20;;;80.03;;
82779;SDS011;72511;45.120;20.720;2023-12-28T15:56:52;101.15;;;47.53;;
82779;SDS011;72511;45.120;20.720;2023-12-28T16:06:53;94.32;;;42.38;;
82779;SDS011;72511;45.120;20.720;2023-12-28T16:16:58;93.55;;;43.03;;
82779;SDS011;72511;45.120;20.720;2023-12-28T16:27:00;75.88;;;35.95;;
82779;SDS011;72511;45.120;20.720;2023-12-28T16:37:01;149.30;;;61.95;;
82779;SDS011;72511;45.120;20.720;2023-12-28T16:47:03;134.02;;;59.67;;
82779;SDS011;72511;45.120;20.720;2023-12-28T16:57:05;241.85;;;112.15;;
82779;SDS011;72511;45.120;20.720;2023-12-28T17:07:08;420.50;;;201.60;;
82779;SDS011;72511;45.120;20.720;2023-12-28T17:17:11;251.65;;;114.20;;
82779;SDS011;72511;45.120;20.720;2023-12-28T17:27:13;317.35;;;138.30;;
82779;SDS011;72511;45.120;20.720;2023-12-28T17:37:18;511.67;;;274.35;;
82779;SDS011;72511;45.120;20.720;2023-12-28T17:47:20;670.50;;;371.17;;
82779;SDS011;72511;45.120;20.720;2023-12-28T17:57:28;585.72;;;331.88;;
82779;SDS011;72511;45.120;20.720;2023-12-28T18:07:29;535.33;;;285.55;;
82779;SDS011;72511;45.120;20.720;2023-12-28T18:17:31;519.70;;;264.48;;
82779;SDS011;72511;45.120;20.720;2023-12-28T18:27:32;474.88;;;231.60;;
82779;SDS011;72511;45.120;20.720;2023-12-28T18:37:35;361.50;;;163.95;;
82779;SDS011;72511;45.120;20.720;2023-12-28T18:47:39;262.38;;;119.28;;
82779;SDS011;72511;45.120;20.720;2023-12-28T18:57:41;229.20;;;102.47;;
82779;SDS011;72511;45.120;20.720;2023-12-28T19:07:43;210.05;;;96.72;;
82779;SDS011;72511;45.120;20.720;2023-12-28T19:17:44;232.02;;;92.20;;
82779;SDS011;72511;45.120;20.720;2023-12-28T19:27:45;198.23;;;83.40;;
82779;SDS011;72511;45.120;20.720;2023-12-28T19:37:47;246.70;;;110.22;;
82779;SDS011;72511;45.120;20.720;2023-12-28T19:47:51;293.33;;;129.55;;
82779;SDS011;72511;45.120;20.720;2023-12-28T19:57:55;189.35;;;76.88;;
82779;SDS011;72511;45.120;20.720;2023-12-28T20:07:57;92.38;;;46.50;;
82779;SDS011;72511;45.120;20.720;2023-12-28T20:17:59;283.50;;;128.57;;
82779;SDS011;72511;45.120;20.720;2023-12-28T20:28:01;236.68;;;108.93;;
82779;SDS011;72511;45.120;20.720;2023-12-28T20:38:03;264.00;;;123.03;;
82779;SDS011;72511;45.120;20.720;2023-12-28T20:48:04;268.92;;;119.28;;
82779;SDS011;72511;45.120;20.720;2023-12-28T20:58:06;199.93;;;89.95;;
82779;SDS011;72511;45.120;20.720;2023-12-28T21:08:09;197.02;;;86.57;;
82779;SDS011;72511;45.120;20.720;2023-12-28T21:18:11;205.00;;;87.68;;
82779;SDS011;72511;45.120;20.720;2023-12-28T21:28:15;192.70;;;83.90;;
82779;SDS011;72511;45.120;20.720;2023-12-28T21:38:18;176.15;;;80.60;;
82779;SDS011;72511;45.120;20.720;2023-12-28T21:48:19;244.30;;;116.47;;
82779;SDS011;72511;45.120;20.720;2023-12-28T21:58:21;202.25;;;92.45;;
82779;SDS011;72511;45.120;20.720;2023-12-28T22:08:22;174.23;;;83.47;;
82779;SDS011;72511;45.120;20.720;2023-12-28T22:18:25;149.20;;;78.20;;
82779;SDS011;72511;45.120;20.720;2023-12-28T22:28:28;149.77;;;68.07;;
82779;SDS011;72511;45.120;20.720;2023-12-28T22:38:31;134.00;;;64.35;;
82779;SDS011;72511;45.120;20.720;2023-12-28T22:48:33;122.53;;;60.22;;
82779;SDS011;72511;45.120;20.720;2023-12-28T22:58:34;113.40;;;54.08;;
82779;SDS011;72511;45.120;20.720;2023-12-28T23:08:36;102.53;;;51.83;;
82779;SDS011;72511;45.120;20.720;2023-12-28T23:18:37;109.80;;;52.17;;
82779;SDS011;72511;45.120;20.720;2023-12-28T23:28:39;98.50;;;48.75;;
82779;SDS011;72511;45.120;20.720;2023-12-28T23:38:41;104.85;;;50.75;;
82779;SDS011;72511;45.120;20.720;2023-12-28T23:48:42;105.57;;;51.75;;
82779;SDS011;72511;45.120;20.720;2023-12-28T23:58:45;117.50;;;57.38;;
